createdAt,value
2022-10-12T00:01:22.571Z,1.57
2022-10-12T00:03:51.613Z,1.60
2022-10-12T00:06:23.795Z,1.97
2022-10-12T00:08:55.180Z,2.17
2022-10-12T00:11:29.728Z,1.90
2022-10-12T00:14:00.362Z,2.00
2022-10-12T00:16:31.507Z,1.80
2022-10-12T00:19:00.794Z,2.17
2022-10-12T00:21:31.333Z,1.97
2022-10-12T00:24:02.016Z,1.73
2022-10-12T00:26:33.458Z,1.80
2022-10-12T00:29:04.779Z,1.47
2022-10-12T00:31:34.335Z,1.70
2022-10-12T00:34:05.254Z,1.60
2022-10-12T00:36:36.323Z,2.13
2022-10-12T00:39:08.990Z,1.60
2022-10-12T00:41:42.619Z,1.40
2022-10-12T00:44:39.453Z,1.60
2022-10-12T00:47:33.699Z,1.70
2022-10-12T00:50:11.257Z,1.80
2022-10-12T00:52:49.170Z,1.97
2022-10-12T00:55:22.424Z,1.80
2022-10-12T00:57:56.334Z,1.60
2022-10-12T01:00:25.727Z,1.80
2022-10-12T01:02:56.484Z,1.70
2022-10-12T01:05:25.811Z,1.57
2022-10-12T01:07:54.482Z,1.70
2022-10-12T01:10:23.168Z,1.43
2022-10-12T01:12:53.677Z,1.60
2022-10-12T01:15:25.093Z,1.60
2022-10-12T01:18:02.784Z,1.60
2022-10-12T01:20:52.610Z,1.63
2022-10-12T01:24:16.048Z,1.53
2022-10-12T01:27:14.885Z,1.47
2022-10-12T01:30:22.020Z,1.47
2022-10-12T01:33:19.128Z,2.10
2022-10-12T01:35:59.686Z,1.80
2022-10-12T01:38:42.698Z,2.07
2022-10-12T01:41:19.526Z,1.73
2022-10-12T01:43:48.166Z,1.67
2022-10-12T01:46:54.178Z,1.90
2022-10-12T01:49:28.615Z,1.63
2022-10-12T01:52:29.243Z,2.07
2022-10-12T01:55:19.067Z,1.40
2022-10-12T01:58:06.255Z,1.93
2022-10-12T02:00:44.165Z,1.43
2022-10-12T02:03:25.377Z,1.60
2022-10-12T02:06:02.124Z,1.70
2022-10-12T02:08:39.114Z,1.70
2022-10-12T02:11:13.062Z,1.50
2022-10-12T02:13:46.233Z,1.50
2022-10-12T02:16:20.252Z,1.83
2022-10-12T02:18:56.580Z,1.70
2022-10-12T02:21:32.042Z,1.57
2022-10-12T02:24:05.790Z,1.70
2022-10-12T02:26:38.923Z,1.50
2022-10-12T02:29:14.560Z,1.40
2022-10-12T02:31:55.835Z,1.20
2022-10-12T02:34:34.878Z,1.63
2022-10-12T02:37:10.698Z,1.50
2022-10-12T02:39:47.277Z,1.30
2022-10-12T02:42:24.866Z,1.47
2022-10-12T02:44:56.512Z,1.33
2022-10-12T02:47:30.071Z,1.43
2022-10-12T02:50:02.438Z,1.73
2022-10-12T02:52:33.842Z,1.40
2022-10-12T02:55:02.532Z,1.47
2022-10-12T02:57:31.245Z,1.40
2022-10-12T03:00:03.664Z,1.70
2022-10-12T03:02:32.369Z,1.23
2022-10-12T03:05:02.435Z,1.40
2022-10-12T03:07:31.133Z,1.40
2022-10-12T03:09:59.764Z,1.37
2022-10-12T03:12:29.513Z,1.57
2022-10-12T03:15:00.175Z,1.43
2022-10-12T03:17:28.779Z,1.20
2022-10-12T03:19:57.421Z,1.40
2022-10-12T03:22:27.440Z,1.27
2022-10-12T03:24:56.767Z,1.20
2022-10-12T03:27:26.438Z,1.07
2022-10-12T03:29:55.115Z,1.23
2022-10-12T03:32:23.784Z,1.33
2022-10-12T03:34:52.789Z,1.40
2022-10-12T03:37:21.460Z,1.40
2022-10-12T03:39:51.482Z,1.20
2022-10-12T03:42:20.175Z,1.40
2022-10-12T03:44:48.759Z,1.30
2022-10-12T03:47:17.494Z,1.33
2022-10-12T03:49:46.222Z,1.23
2022-10-12T03:52:14.886Z,1.50
2022-10-12T03:54:43.650Z,2.47
2022-10-12T03:57:13.860Z,8.00
2022-10-12T03:59:43.026Z,9.53
2022-10-12T04:02:16.637Z,9.77
2022-10-12T04:04:45.941Z,7.73
2022-10-12T04:07:14.987Z,6.93
2022-10-12T04:09:43.891Z,4.90
2022-10-12T04:12:16.148Z,4.80
2022-10-12T04:14:45.482Z,3.73
2022-10-12T04:17:16.425Z,2.60
2022-10-12T04:19:45.496Z,2.07
2022-10-12T04:22:14.225Z,1.80
2022-10-12T04:24:42.845Z,2.00
2022-10-12T04:27:12.154Z,1.80
2022-10-12T04:29:42.247Z,1.70
2022-10-12T04:32:12.723Z,2.70
2022-10-12T04:34:41.519Z,2.10
2022-10-12T04:37:10.323Z,2.20
2022-10-12T04:39:39.059Z,2.10
2022-10-12T04:42:11.443Z,1.77
2022-10-12T04:44:41.604Z,1.40
2022-10-12T04:48:24.239Z,1.87
2022-10-12T04:50:54.325Z,1.57
2022-10-12T04:53:22.982Z,1.50
2022-10-12T04:55:52.687Z,1.60
2022-10-12T04:58:21.355Z,1.30
2022-10-12T05:00:51.684Z,1.50
2022-10-12T05:03:20.437Z,1.47
2022-10-12T05:05:52.824Z,1.70
2022-10-12T05:08:21.471Z,1.50
2022-10-12T05:10:50.039Z,1.70
2022-10-12T05:13:18.971Z,1.57
2022-10-12T05:15:47.618Z,1.67
2022-10-12T05:18:18.000Z,1.90
2022-10-12T05:20:46.749Z,2.10
2022-10-12T05:23:15.347Z,2.47
2022-10-12T05:25:43.993Z,2.80
2022-10-12T05:28:12.700Z,2.20
2022-10-12T05:30:41.357Z,2.33
2022-10-12T05:33:09.951Z,2.10
2022-10-12T05:35:43.970Z,1.70
2022-10-12T05:38:15.491Z,2.50
2022-10-12T05:40:44.937Z,2.93
2022-10-12T05:43:13.736Z,4.70
2022-10-12T05:45:42.370Z,6.70
2022-10-12T05:48:11.007Z,7.43
2022-10-12T05:50:40.993Z,7.73
2022-10-12T05:53:09.680Z,6.10
2022-10-12T05:55:38.311Z,4.70
2022-10-12T05:58:06.983Z,4.77
2022-10-12T06:00:35.630Z,4.80
2022-10-12T06:03:04.310Z,6.00
2022-10-12T06:05:32.981Z,3.13
2022-10-12T06:08:02.953Z,1.90
2022-10-12T06:10:32.294Z,2.47
2022-10-12T06:13:00.992Z,7.80
2022-10-12T06:15:29.740Z,4.30
2022-10-12T06:17:58.367Z,7.53
2022-10-12T06:20:27.061Z,4.67
2022-10-12T06:22:55.744Z,4.90
2022-10-12T06:25:25.767Z,4.90
2022-10-12T06:27:54.412Z,4.50
2022-10-12T06:30:23.035Z,6.87
2022-10-12T06:32:51.690Z,7.17
2022-10-12T06:35:20.349Z,4.60
2022-10-12T06:37:51.567Z,3.97
2022-10-12T06:40:21.049Z,4.23
2022-10-12T06:42:56.156Z,5.80
2022-10-12T06:45:27.115Z,6.30
2022-10-12T06:47:55.756Z,5.17
2022-10-12T06:50:24.736Z,5.63
2022-10-12T06:52:53.469Z,5.90
2022-10-12T06:55:22.331Z,6.43
2022-10-12T06:57:52.450Z,8.33
2022-10-12T07:00:21.343Z,8.07
2022-10-12T07:02:51.212Z,10.23
2022-10-12T07:05:21.092Z,9.40
2022-10-12T07:07:49.826Z,9.97
2022-10-12T07:10:18.694Z,10.30
2022-10-12T07:12:47.343Z,9.13
2022-10-12T07:15:17.549Z,11.00
2022-10-12T07:17:46.230Z,10.17
2022-10-12T07:20:15.251Z,9.93
2022-10-12T07:22:44.606Z,9.53
2022-10-12T07:25:13.210Z,8.70
2022-10-12T07:27:42.077Z,8.23
2022-10-12T07:30:13.379Z,8.23
2022-10-12T07:32:44.686Z,6.87
2022-10-12T07:35:13.291Z,4.90
2022-10-12T07:37:42.267Z,5.33
2022-10-12T07:40:11.897Z,5.93
2022-10-12T07:42:59.161Z,5.97
2022-10-12T07:45:29.818Z,6.07
2022-10-12T07:47:59.816Z,5.63
2022-10-12T07:50:28.430Z,5.43
2022-10-12T07:52:57.156Z,5.00
2022-10-12T07:55:25.733Z,4.80
2022-10-12T07:57:54.408Z,4.57
2022-10-12T08:00:23.244Z,4.07
2022-10-12T08:02:51.844Z,3.87
2022-10-12T08:05:22.466Z,4.00
2022-10-12T08:07:52.543Z,3.70
2022-10-12T08:10:21.813Z,3.80
2022-10-12T08:12:52.235Z,3.93
2022-10-12T08:15:21.315Z,3.50
2022-10-12T08:17:49.901Z,3.17
2022-10-12T08:20:18.818Z,3.30
2022-10-12T08:22:48.855Z,3.60
2022-10-12T08:25:17.624Z,3.73
2022-10-12T08:27:46.232Z,3.43
2022-10-12T08:30:15.507Z,3.27
2022-10-12T08:32:44.187Z,3.33
2022-10-12T08:35:12.798Z,3.53
2022-10-12T08:37:41.698Z,4.00
2022-10-12T08:40:17.944Z,3.20
2022-10-12T08:42:57.916Z,2.80
2022-10-12T08:45:39.628Z,2.93
2022-10-12T08:48:16.515Z,2.90
2022-10-12T08:50:53.271Z,2.90
2022-10-12T08:53:29.316Z,2.57
2022-10-12T08:56:00.932Z,2.70
2022-10-12T08:58:34.530Z,2.73
2022-10-12T09:01:19.654Z,2.63
2022-10-12T09:04:05.958Z,2.70
2022-10-12T09:06:42.798Z,2.87
2022-10-12T09:09:34.372Z,2.73
2022-10-12T09:12:22.202Z,2.20
2022-10-12T09:15:00.465Z,2.50
2022-10-12T09:17:38.367Z,2.43
2022-10-12T09:20:19.267Z,2.10
2022-10-12T09:22:52.344Z,2.87
2022-10-12T09:25:26.865Z,2.30
2022-10-12T09:28:15.047Z,2.47
2022-10-12T09:31:01.682Z,2.40
2022-10-12T09:33:39.047Z,2.90
2022-10-12T09:36:11.206Z,3.17
2022-10-12T09:38:40.222Z,3.60
2022-10-12T09:41:20.946Z,3.50
2022-10-12T09:43:54.876Z,3.17
2022-10-12T09:46:36.679Z,3.17
2022-10-12T09:49:05.310Z,3.43
2022-10-12T09:51:34.471Z,3.10
2022-10-12T09:54:06.611Z,2.90
2022-10-12T09:56:42.305Z,2.97
2022-10-12T09:59:30.453Z,3.10
2022-10-12T10:02:05.953Z,2.90
2022-10-12T10:04:34.983Z,2.70
2022-10-12T10:07:28.592Z,3.00
2022-10-12T10:10:19.064Z,3.23
2022-10-12T10:12:54.807Z,3.20
2022-10-12T10:15:29.275Z,3.50
2022-10-12T10:18:01.339Z,3.93
2022-10-12T10:20:35.421Z,4.10
2022-10-12T10:23:06.050Z,3.60
2022-10-12T10:25:35.708Z,3.63
2022-10-12T10:28:25.661Z,3.77
2022-10-12T10:31:08.443Z,3.33
2022-10-12T10:33:38.283Z,3.40
2022-10-12T10:36:19.511Z,3.00
2022-10-12T10:38:58.341Z,3.33
2022-10-12T10:41:38.478Z,3.17
2022-10-12T10:44:24.286Z,3.23
2022-10-12T10:46:55.716Z,2.90
2022-10-12T10:49:37.833Z,2.80
2022-10-12T10:52:22.875Z,3.00
2022-10-12T10:55:08.202Z,2.87
2022-10-12T10:57:45.258Z,3.33
2022-10-12T11:00:37.840Z,3.03
2022-10-12T11:03:18.293Z,2.60
2022-10-12T11:05:54.134Z,2.73
2022-10-12T11:08:27.303Z,2.60
2022-10-12T11:11:03.258Z,2.77
2022-10-12T11:13:37.584Z,2.60
2022-10-12T11:16:20.506Z,2.67
2022-10-12T11:18:56.730Z,2.53
2022-10-12T11:21:34.041Z,2.90
2022-10-12T11:24:14.523Z,2.40
2022-10-12T11:26:52.539Z,2.83
2022-10-12T11:29:22.172Z,2.67
2022-10-12T11:32:00.096Z,2.37
2022-10-12T11:34:39.746Z,3.20
2022-10-12T11:37:20.264Z,3.40
2022-10-12T11:39:53.779Z,2.50
2022-10-12T11:42:33.805Z,3.13
2022-10-12T11:45:07.270Z,2.47
2022-10-12T11:47:44.136Z,2.80
2022-10-12T11:50:31.382Z,2.80
2022-10-12T11:53:05.081Z,3.00
2022-10-12T11:55:58.579Z,2.57
2022-10-12T11:58:56.060Z,2.80
2022-10-12T12:02:01.275Z,2.50
2022-10-12T12:04:42.568Z,2.90
2022-10-12T12:07:59.262Z,2.53
2022-10-12T12:11:06.774Z,2.70
2022-10-12T12:13:35.483Z,2.63
2022-10-12T12:16:36.961Z,2.63
2022-10-12T12:19:42.615Z,2.80
2022-10-12T12:22:24.851Z,2.80
2022-10-12T12:25:17.599Z,2.53
2022-10-12T12:27:51.474Z,2.77
2022-10-12T12:30:38.120Z,2.60
2022-10-12T12:33:30.080Z,2.70
2022-10-12T12:36:02.860Z,2.60
2022-10-12T12:38:36.749Z,2.80
2022-10-12T12:41:11.756Z,3.10
2022-10-12T12:44:03.335Z,2.83
2022-10-12T12:47:43.865Z,2.57
2022-10-12T12:50:35.645Z,2.70
2022-10-12T12:53:15.561Z,2.57
2022-10-12T12:56:03.844Z,2.50
2022-10-12T12:59:01.357Z,3.27
2022-10-12T13:02:11.340Z,2.83
2022-10-12T13:05:14.915Z,3.10
2022-10-12T13:08:14.529Z,2.70
2022-10-12T13:11:12.372Z,2.73
2022-10-12T13:14:04.374Z,2.73
2022-10-12T13:17:31.780Z,2.60
2022-10-12T13:20:04.336Z,2.67
2022-10-12T13:22:37.250Z,3.17
2022-10-12T13:25:13.670Z,2.73
2022-10-12T13:27:50.634Z,3.00
2022-10-12T13:30:34.667Z,2.67
2022-10-12T13:33:14.766Z,3.10
2022-10-12T13:35:50.169Z,2.73
2022-10-12T13:38:23.886Z,3.03
2022-10-12T13:41:02.693Z,3.27
2022-10-12T13:43:43.457Z,3.23
2022-10-12T13:46:15.899Z,3.10
2022-10-12T13:49:05.693Z,2.87
2022-10-12T13:51:36.279Z,3.00
2022-10-12T13:54:22.152Z,3.57
2022-10-12T13:56:58.899Z,2.97
2022-10-12T13:59:34.697Z,4.00
2022-10-12T14:02:17.276Z,3.40
2022-10-12T14:04:46.475Z,3.23
2022-10-12T14:07:24.698Z,3.13
2022-10-12T14:10:00.140Z,3.20
2022-10-12T14:12:32.717Z,3.20
2022-10-12T14:15:14.205Z,3.13
2022-10-12T14:17:47.246Z,4.33
2022-10-12T14:20:31.860Z,3.53
2022-10-12T14:23:04.452Z,3.97
2022-10-12T14:25:34.724Z,4.70
2022-10-12T14:28:07.905Z,4.47
2022-10-12T14:30:40.906Z,3.73
2022-10-12T14:33:26.198Z,4.50
2022-10-12T14:36:15.849Z,3.70
2022-10-12T14:38:48.040Z,3.70
2022-10-12T14:41:39.978Z,4.40
2022-10-12T14:44:16.166Z,4.30
2022-10-12T14:46:54.118Z,4.33
2022-10-12T14:49:28.128Z,3.83
2022-10-12T14:51:57.371Z,3.40
2022-10-12T14:54:26.466Z,3.40
2022-10-12T14:56:55.437Z,3.40
2022-10-12T14:59:24.484Z,3.60
2022-10-12T15:01:54.008Z,3.77
2022-10-12T15:04:24.362Z,3.70
2022-10-12T15:06:53.123Z,4.10
2022-10-12T15:09:24.381Z,4.80
2022-10-12T15:11:53.168Z,4.40
2022-10-12T15:14:22.184Z,4.37
2022-10-12T15:16:51.210Z,7.27
2022-10-12T15:19:20.611Z,9.93
2022-10-12T15:21:50.851Z,19.53
2022-10-12T15:24:22.600Z,20.77
2022-10-12T15:26:51.398Z,15.93
2022-10-12T15:29:20.409Z,20.27
2022-10-12T15:31:51.285Z,21.53
2022-10-12T15:34:21.144Z,17.90
2022-10-12T15:36:51.264Z,13.83
2022-10-12T15:39:20.215Z,9.27
2022-10-12T15:41:49.203Z,9.17
2022-10-12T15:44:18.902Z,8.90
2022-10-12T15:46:53.209Z,11.50
2022-10-12T15:49:25.463Z,12.83
2022-10-12T15:51:56.846Z,12.57
2022-10-12T15:54:28.194Z,21.07
2022-10-12T15:57:24.488Z,21.00
2022-10-12T15:59:58.324Z,18.83
2022-10-12T16:02:28.899Z,15.43
2022-10-12T16:04:57.784Z,9.87
2022-10-12T16:07:28.366Z,9.60
2022-10-12T16:09:59.499Z,8.30
2022-10-12T16:12:28.297Z,7.43
2022-10-12T16:14:57.122Z,8.97
2022-10-12T16:17:25.824Z,23.70
2022-10-12T16:19:55.172Z,29.47
2022-10-12T16:22:33.690Z,34.00
2022-10-12T16:25:07.536Z,23.33
2022-10-12T16:27:37.537Z,21.47
2022-10-12T16:30:13.751Z,22.57
2022-10-12T16:32:43.766Z,15.60
2022-10-12T16:35:15.131Z,13.43
2022-10-12T16:37:45.661Z,14.37
2022-10-12T16:40:17.023Z,11.17
2022-10-12T16:42:46.443Z,11.57
2022-10-12T16:45:15.637Z,14.77
2022-10-12T16:47:44.753Z,20.40
2022-10-12T16:50:20.727Z,15.63
2022-10-12T16:52:51.941Z,13.40
2022-10-12T16:55:22.185Z,11.03
2022-10-12T16:57:50.997Z,10.87
2022-10-12T17:00:21.786Z,10.07
2022-10-12T17:02:53.003Z,10.17
2022-10-12T17:05:26.711Z,10.03
2022-10-12T17:07:56.984Z,8.77
2022-10-12T17:10:26.907Z,11.47
2022-10-12T17:12:55.756Z,13.47
2022-10-12T17:15:30.211Z,34.23
2022-10-12T17:17:59.751Z,38.87
2022-10-12T17:20:28.574Z,52.00
2022-10-12T17:23:10.065Z,29.77
2022-10-12T17:25:39.180Z,22.40
2022-10-12T17:28:10.817Z,9.23
2022-10-12T17:30:47.760Z,10.63
2022-10-12T17:33:16.575Z,8.83
2022-10-12T17:36:06.962Z,11.10
2022-10-12T17:38:38.691Z,9.33
2022-10-12T17:41:07.954Z,9.13
2022-10-12T17:43:38.779Z,9.83
2022-10-12T17:46:23.033Z,9.13
2022-10-12T17:48:52.988Z,8.43
2022-10-12T17:51:21.981Z,8.37
2022-10-12T17:53:54.609Z,12.43
2022-10-12T17:56:31.884Z,15.60
2022-10-12T17:59:05.648Z,15.37
2022-10-12T18:01:35.820Z,15.10
2022-10-12T18:04:06.983Z,11.07
2022-10-12T18:06:44.209Z,15.53
2022-10-12T18:09:16.003Z,10.90
2022-10-12T18:11:45.562Z,8.77
2022-10-12T18:14:15.009Z,9.03
2022-10-12T18:16:43.776Z,8.80
2022-10-12T18:19:18.215Z,8.47
2022-10-12T18:21:47.728Z,8.30
2022-10-12T18:24:18.851Z,9.73
2022-10-12T18:26:49.176Z,11.17
2022-10-12T18:29:22.469Z,12.30
2022-10-12T18:31:53.172Z,14.27
2022-10-12T18:34:22.137Z,12.93
2022-10-12T18:36:52.833Z,10.70
2022-10-12T18:39:22.969Z,9.63
2022-10-12T18:42:09.041Z,11.27
2022-10-12T18:44:37.871Z,10.50
2022-10-12T18:47:06.698Z,10.07
2022-10-12T18:49:35.471Z,9.60
2022-10-12T18:52:04.419Z,10.87
2022-10-12T18:54:34.771Z,8.77
2022-10-12T18:57:03.782Z,9.53
2022-10-12T18:59:32.425Z,9.20
2022-10-12T19:02:01.601Z,11.00
2022-10-12T19:04:30.369Z,10.00
2022-10-12T19:06:59.155Z,9.50
2022-10-12T19:09:27.964Z,9.83
2022-10-12T19:11:58.185Z,9.53
2022-10-12T19:14:29.068Z,9.80
2022-10-12T19:16:57.820Z,9.33
2022-10-12T19:19:26.577Z,9.40
2022-10-12T19:21:55.476Z,9.13
2022-10-12T19:24:24.206Z,9.83
2022-10-12T19:26:53.393Z,9.43
2022-10-12T19:29:23.578Z,8.83
2022-10-12T19:31:53.961Z,8.83
2022-10-12T19:34:23.853Z,9.17
2022-10-12T19:36:53.059Z,9.60
2022-10-12T19:39:25.166Z,10.00
2022-10-12T19:41:54.411Z,11.53
2022-10-12T19:44:24.988Z,11.20
2022-10-12T19:46:53.754Z,13.93
2022-10-12T19:49:22.670Z,12.23
2022-10-12T19:51:51.471Z,12.23
2022-10-12T19:54:20.163Z,10.00
2022-10-12T19:56:48.911Z,10.27
2022-10-12T19:59:17.671Z,9.83
2022-10-12T20:01:48.286Z,10.67
2022-10-12T20:04:17.235Z,10.20
2022-10-12T20:06:46.081Z,10.20
2022-10-12T20:09:14.900Z,8.57
2022-10-12T20:11:43.774Z,8.50
2022-10-12T20:14:12.693Z,8.43
2022-10-12T20:16:41.546Z,8.53
2022-10-12T20:19:11.825Z,8.63
2022-10-12T20:21:40.497Z,8.60
2022-10-12T20:24:11.157Z,9.50
2022-10-12T20:26:40.051Z,13.80
2022-10-12T20:29:08.685Z,19.67
2022-10-12T20:31:37.338Z,29.53
2022-10-12T20:34:06.049Z,30.70
2022-10-12T20:36:36.174Z,26.67
2022-10-12T20:39:05.660Z,28.33
2022-10-12T20:41:34.532Z,21.97
2022-10-12T20:44:03.565Z,19.53
2022-10-12T20:46:32.344Z,16.63
2022-10-12T20:49:03.047Z,14.57
2022-10-12T20:51:37.118Z,13.10
2022-10-12T20:54:08.924Z,11.80
2022-10-12T20:56:42.445Z,11.40
2022-10-12T20:59:12.356Z,10.43
2022-10-12T21:01:41.229Z,10.27
2022-10-12T21:04:10.830Z,10.73
2022-10-12T21:06:42.641Z,10.00
2022-10-12T21:09:15.978Z,9.73
2022-10-12T21:11:44.771Z,9.37
2022-10-12T21:14:14.753Z,9.30
2022-10-12T21:16:43.414Z,9.33
2022-10-12T21:19:17.483Z,8.90
2022-10-12T21:21:47.771Z,9.53
2022-10-12T21:24:17.172Z,9.20
2022-10-12T21:26:46.497Z,9.53
2022-10-12T21:29:15.417Z,8.43
2022-10-12T21:31:44.035Z,9.40
2022-10-12T21:34:13.229Z,8.80
2022-10-12T21:36:41.906Z,9.30
2022-10-12T21:39:15.123Z,8.40
2022-10-12T21:41:44.229Z,9.67
2022-10-12T21:44:13.401Z,9.10
2022-10-12T21:46:45.226Z,9.67
2022-10-12T21:49:13.959Z,9.07
2022-10-12T21:51:42.768Z,9.20
2022-10-12T21:54:12.880Z,9.57
2022-10-12T21:56:41.470Z,9.60
2022-10-12T21:59:11.071Z,9.20
2022-10-12T22:01:41.757Z,9.77
2022-10-12T22:04:15.726Z,9.53
2022-10-12T22:06:44.771Z,8.13
2022-10-12T22:09:19.338Z,8.90
2022-10-12T22:11:49.321Z,8.40
2022-10-12T22:14:20.094Z,8.83
2022-10-12T22:16:48.843Z,8.17
2022-10-12T22:19:19.910Z,8.93
2022-10-12T22:21:49.931Z,8.60
2022-10-12T22:24:21.003Z,8.70
2022-10-12T22:26:50.377Z,8.73
2022-10-12T22:29:19.118Z,9.03
2022-10-12T22:31:47.752Z,8.27
2022-10-12T22:34:16.954Z,7.13
2022-10-12T22:36:45.636Z,8.00
2022-10-12T22:39:14.520Z,8.03
2022-10-12T22:41:47.493Z,8.30
2022-10-12T22:44:16.151Z,8.70
2022-10-12T22:46:44.998Z,8.30
2022-10-12T22:49:13.573Z,7.80
2022-10-12T22:51:45.414Z,8.07
2022-10-12T22:54:14.090Z,7.13
2022-10-12T22:56:43.198Z,8.40
2022-10-12T22:59:16.236Z,7.50
2022-10-12T23:01:45.533Z,7.70
2022-10-12T23:04:14.275Z,7.03
2022-10-12T23:06:42.896Z,7.17
2022-10-12T23:09:11.806Z,7.20
2022-10-12T23:11:40.533Z,7.10
2022-10-12T23:14:13.141Z,7.23
2022-10-12T23:16:41.792Z,7.47
2022-10-12T23:19:11.813Z,7.07
2022-10-12T23:21:40.531Z,7.20
2022-10-12T23:24:10.810Z,7.33
2022-10-12T23:26:39.516Z,7.20
2022-10-12T23:29:08.238Z,7.17
2022-10-12T23:31:38.441Z,7.43
2022-10-12T23:34:09.408Z,7.60
2022-10-12T23:36:38.699Z,7.10
2022-10-12T23:39:07.542Z,7.63
2022-10-12T23:41:36.133Z,6.90
2022-10-12T23:44:05.089Z,6.70
2022-10-12T23:46:33.745Z,7.60
2022-10-12T23:49:03.759Z,7.07
2022-10-12T23:51:32.529Z,6.47
2022-10-12T23:54:01.753Z,7.13
2022-10-12T23:56:30.520Z,7.17
2022-10-12T23:59:03.061Z,7.03
